createdAt,value
2019-01-03T00:01:24.247Z,2.17
2019-01-03T00:03:50.600Z,2.80
2019-01-03T00:06:01.266Z,2.50
2019-01-03T00:08:24.794Z,1.63
2019-01-03T00:10:38.587Z,1.43
2019-01-03T00:12:57.954Z,1.80
2019-01-03T00:15:07.773Z,2.63
2019-01-03T00:17:22.146Z,2.03
2019-01-03T00:19:45.883Z,1.57
2019-01-03T00:22:11.063Z,1.30
2019-01-03T00:24:21.414Z,1.73
2019-01-03T00:26:46.207Z,1.20
2019-01-03T00:29:14.942Z,2.00
2019-01-03T00:31:28.315Z,1.70
2019-01-03T00:33:41.951Z,2.20
2019-01-03T00:36:06.356Z,1.30
2019-01-03T00:38:16.171Z,1.50
2019-01-03T00:40:28.939Z,1.80
2019-01-03T00:42:53.409Z,2.15
2019-01-03T00:45:06.658Z,1.95
2019-01-03T00:47:34.965Z,1.92
2019-01-03T00:49:46.327Z,1.70
2019-01-03T00:52:09.906Z,1.60
2019-01-03T00:54:21.214Z,1.53
2019-01-03T00:56:48.219Z,1.40
2019-01-03T00:59:12.647Z,1.53
2019-01-03T01:01:25.898Z,1.43
2019-01-03T01:03:53.286Z,1.40
2019-01-03T01:06:05.631Z,1.10
2019-01-03T01:08:18.008Z,1.25
2019-01-03T01:10:33.224Z,1.30
2019-01-03T01:13:02.950Z,1.40
2019-01-03T01:15:12.658Z,1.50
2019-01-03T01:17:29.010Z,1.07
2019-01-03T01:19:56.265Z,1.20
2019-01-03T01:22:21.094Z,1.27
2019-01-03T01:24:49.468Z,1.63
2019-01-03T01:27:03.930Z,1.70
2019-01-03T01:29:28.354Z,1.43
2019-01-03T01:31:41.786Z,1.02
2019-01-03T01:33:58.286Z,1.55
2019-01-03T01:36:07.532Z,1.40
2019-01-03T01:38:16.651Z,1.33
2019-01-03T01:40:42.238Z,1.37
2019-01-03T01:42:56.900Z,1.00
2019-01-03T01:45:11.598Z,1.50
2019-01-03T01:47:24.880Z,1.83
2019-01-03T01:49:40.106Z,1.50
2019-01-03T01:52:06.666Z,1.75
2019-01-03T01:54:15.462Z,1.07
2019-01-03T01:56:30.040Z,1.97
2019-01-03T01:58:41.033Z,1.87
2019-01-03T02:00:55.367Z,2.00
2019-01-03T02:03:20.775Z,1.90
2019-01-03T02:05:33.269Z,1.77
2019-01-03T02:08:01.751Z,1.60
2019-01-03T02:10:25.567Z,2.37
2019-01-03T02:12:35.234Z,1.67
2019-01-03T02:14:46.729Z,2.20
2019-01-03T02:16:56.007Z,1.43
2019-01-03T02:19:10.629Z,1.90
2019-01-03T02:21:24.410Z,1.55
2019-01-03T02:23:35.039Z,1.90
2019-01-03T02:25:49.428Z,1.50
2019-01-03T02:28:12.492Z,1.90
2019-01-03T02:30:23.113Z,1.70
2019-01-03T02:32:35.275Z,1.43
2019-01-03T02:34:55.724Z,2.23
2019-01-03T02:37:24.293Z,1.75
2019-01-03T02:39:45.804Z,1.35
2019-01-03T02:42:00.127Z,1.55
2019-01-03T02:44:09.741Z,2.40
2019-01-03T02:46:19.031Z,1.05
2019-01-03T02:48:46.494Z,1.05
2019-01-03T02:51:16.042Z,1.95
2019-01-03T02:53:25.579Z,2.00
2019-01-03T02:55:51.157Z,1.20
2019-01-03T02:58:19.612Z,1.60
2019-01-03T03:00:43.329Z,1.60
2019-01-03T03:03:11.061Z,1.42
2019-01-03T03:05:34.832Z,1.67
2019-01-03T03:07:57.504Z,1.62
2019-01-03T03:10:07.345Z,1.63
2019-01-03T03:12:16.856Z,1.90
2019-01-03T03:14:31.239Z,1.73
2019-01-03T03:16:43.075Z,1.70
2019-01-03T03:18:55.385Z,1.65
2019-01-03T03:21:10.820Z,1.77
2019-01-03T03:23:22.244Z,1.42
2019-01-03T03:25:48.221Z,1.70
2019-01-03T03:28:00.575Z,1.23
2019-01-03T03:30:10.953Z,1.77
2019-01-03T03:32:20.322Z,1.25
2019-01-03T03:34:34.651Z,1.60
2019-01-03T03:36:55.909Z,1.90
2019-01-03T03:39:13.188Z,2.17
2019-01-03T03:41:25.769Z,2.07
2019-01-03T03:43:40.151Z,1.93
2019-01-03T03:46:05.646Z,2.10
2019-01-03T03:48:19.001Z,1.60
2019-01-03T03:50:32.583Z,1.15
2019-01-03T03:52:56.395Z,1.83
2019-01-03T03:55:10.913Z,0.90
2019-01-03T03:57:20.476Z,1.00
2019-01-03T03:59:32.952Z,1.10
2019-01-03T04:01:44.745Z,1.40
2019-01-03T04:03:58.152Z,1.70
2019-01-03T04:06:22.735Z,1.20
2019-01-03T04:08:38.708Z,1.17
2019-01-03T04:10:53.096Z,1.00
2019-01-03T04:13:11.936Z,1.20
2019-01-03T04:15:23.329Z,1.60
2019-01-03T04:17:36.648Z,1.17
2019-01-03T04:19:51.367Z,0.90
2019-01-03T04:22:14.951Z,0.88
2019-01-03T04:24:43.668Z,2.37
2019-01-03T04:26:58.887Z,2.13
2019-01-03T04:29:09.424Z,1.17
2019-01-03T04:31:21.212Z,1.10
2019-01-03T04:33:30.407Z,1.15
2019-01-03T04:35:40.105Z,2.50
2019-01-03T04:37:52.547Z,1.10
2019-01-03T04:40:05.080Z,1.25
2019-01-03T04:42:30.543Z,1.30
2019-01-03T04:44:56.006Z,1.47
2019-01-03T04:47:05.679Z,1.27
2019-01-03T04:49:20.036Z,1.27
2019-01-03T04:51:35.178Z,1.23
2019-01-03T04:53:50.777Z,1.17
2019-01-03T04:56:10.398Z,1.40
2019-01-03T04:58:38.960Z,1.47
2019-01-03T05:00:48.761Z,1.40
2019-01-03T05:03:12.371Z,1.45
2019-01-03T05:05:21.905Z,1.40
2019-01-03T05:07:36.351Z,1.50
2019-01-03T05:09:50.955Z,0.95
2019-01-03T05:12:05.663Z,1.00
2019-01-03T05:14:30.414Z,1.10
2019-01-03T05:16:42.704Z,1.40
2019-01-03T05:18:55.208Z,1.35
2019-01-03T05:21:20.036Z,1.33
2019-01-03T05:23:47.638Z,1.33
2019-01-03T05:25:55.632Z,1.40
2019-01-03T05:28:10.749Z,1.80
2019-01-03T05:30:37.541Z,1.50
2019-01-03T05:33:01.201Z,1.33
2019-01-03T05:35:16.630Z,1.45
2019-01-03T05:37:31.778Z,1.90
2019-01-03T05:39:57.421Z,1.87
2019-01-03T05:42:26.084Z,1.40
2019-01-03T05:44:35.848Z,1.20
2019-01-03T05:46:51.076Z,1.07
2019-01-03T05:49:03.666Z,1.00
2019-01-03T05:51:28.304Z,1.80
2019-01-03T05:53:48.737Z,1.42
2019-01-03T05:56:00.875Z,1.62
2019-01-03T05:58:13.401Z,1.53
2019-01-03T06:00:37.715Z,1.73
2019-01-03T06:03:01.151Z,1.37
2019-01-03T06:05:13.138Z,1.60
2019-01-03T06:07:26.615Z,1.55
2019-01-03T06:09:54.168Z,1.45
2019-01-03T06:12:18.690Z,2.15
2019-01-03T06:14:44.177Z,1.20
2019-01-03T06:16:52.937Z,3.20
2019-01-03T06:19:05.759Z,1.50
2019-01-03T06:21:14.444Z,1.53
2019-01-03T06:23:41.997Z,1.45
2019-01-03T06:25:56.491Z,2.17
2019-01-03T06:28:08.536Z,1.17
2019-01-03T06:30:34.747Z,1.33
2019-01-03T06:32:49.015Z,2.13
2019-01-03T06:35:16.452Z,1.43
2019-01-03T06:37:30.031Z,1.77
2019-01-03T06:39:45.528Z,1.98
2019-01-03T06:41:57.946Z,2.03
2019-01-03T06:44:06.775Z,1.55
2019-01-03T06:46:33.413Z,1.52
2019-01-03T06:48:53.683Z,1.20
2019-01-03T06:51:05.031Z,1.53
2019-01-03T06:53:31.638Z,1.85
2019-01-03T06:55:41.692Z,2.00
2019-01-03T06:57:50.439Z,1.52
2019-01-03T07:00:17.951Z,1.40
2019-01-03T07:02:32.475Z,1.90
2019-01-03T07:04:41.879Z,1.30
2019-01-03T07:06:56.255Z,1.85
2019-01-03T07:09:09.899Z,2.05
2019-01-03T07:11:24.680Z,2.05
2019-01-03T07:13:38.227Z,1.93
2019-01-03T07:15:53.527Z,2.05
2019-01-03T07:18:13.028Z,1.95
2019-01-03T07:20:25.311Z,1.70
2019-01-03T07:22:44.768Z,1.80
2019-01-03T07:24:59.244Z,2.33
2019-01-03T07:27:23.663Z,2.40
2019-01-03T07:29:34.999Z,1.60
2019-01-03T07:32:03.269Z,1.80
2019-01-03T07:34:13.825Z,2.28
2019-01-03T07:36:24.951Z,1.83
2019-01-03T07:38:41.227Z,2.10
2019-01-03T07:40:55.713Z,1.73
2019-01-03T07:43:08.057Z,2.67
2019-01-03T07:45:23.287Z,2.30
2019-01-03T07:47:33.033Z,2.50
2019-01-03T07:49:44.628Z,3.55
2019-01-03T07:52:11.338Z,2.90
2019-01-03T07:54:26.443Z,2.83
2019-01-03T07:56:47.296Z,2.92
2019-01-03T07:59:13.599Z,3.07
2019-01-03T08:01:37.327Z,2.60
2019-01-03T08:03:52.460Z,2.37
2019-01-03T08:06:01.275Z,2.87
2019-01-03T08:08:12.996Z,2.53
2019-01-03T08:10:40.535Z,3.70
2019-01-03T08:13:07.199Z,2.60
2019-01-03T08:15:32.849Z,2.40
2019-01-03T08:17:48.216Z,3.13
2019-01-03T08:19:57.814Z,4.30
2019-01-03T08:22:12.709Z,3.05
2019-01-03T08:24:38.371Z,2.53
2019-01-03T08:27:03.788Z,2.95
2019-01-03T08:29:33.928Z,2.63
2019-01-03T08:31:44.863Z,2.20
2019-01-03T08:34:00.136Z,2.60
2019-01-03T08:36:15.054Z,3.20
2019-01-03T08:38:29.534Z,1.98
2019-01-03T08:40:56.315Z,3.05
2019-01-03T08:43:08.139Z,2.30
2019-01-03T08:45:32.507Z,2.80
2019-01-03T08:47:57.099Z,4.40
2019-01-03T08:50:18.619Z,2.70
2019-01-03T08:52:32.966Z,3.80
2019-01-03T08:54:42.627Z,4.10
2019-01-03T08:56:56.882Z,3.93
2019-01-03T08:59:11.630Z,3.42
2019-01-03T09:01:22.011Z,3.50
2019-01-03T09:03:38.335Z,3.10
2019-01-03T09:06:01.665Z,2.85
2019-01-03T09:08:28.295Z,2.70
2019-01-03T09:10:42.691Z,2.60
2019-01-03T09:12:55.491Z,2.65
2019-01-03T09:15:08.632Z,2.95
2019-01-03T09:17:22.847Z,2.33
2019-01-03T09:19:47.487Z,2.78
2019-01-03T09:21:58.112Z,3.40
2019-01-03T09:24:13.904Z,2.87
2019-01-03T09:26:25.398Z,3.00
2019-01-03T09:28:40.772Z,3.03
2019-01-03T09:30:52.844Z,2.70
2019-01-03T09:33:06.055Z,3.00
2019-01-03T09:35:33.319Z,2.87
2019-01-03T09:37:42.604Z,3.60
2019-01-03T09:39:55.315Z,3.97
2019-01-03T09:42:06.989Z,3.60
2019-01-03T09:44:21.332Z,3.83
2019-01-03T09:46:30.915Z,2.90
2019-01-03T09:48:40.456Z,3.03
2019-01-03T09:50:49.990Z,3.97
2019-01-03T09:52:58.788Z,3.45
2019-01-03T09:55:07.728Z,2.67
2019-01-03T09:57:16.907Z,4.87
2019-01-03T09:59:26.259Z,4.20
2019-01-03T10:01:35.836Z,3.67
2019-01-03T10:03:44.522Z,3.22
2019-01-03T10:05:53.984Z,3.22
2019-01-03T10:08:03.529Z,3.72
2019-01-03T10:10:12.923Z,3.72
2019-01-03T10:12:21.651Z,4.80
2019-01-03T10:14:30.490Z,6.05
2019-01-03T10:16:39.214Z,4.00
2019-01-03T10:18:47.931Z,4.60
2019-01-03T10:20:56.719Z,3.70
2019-01-03T10:23:05.467Z,4.30
2019-01-03T10:25:14.384Z,4.23
2019-01-03T10:27:23.411Z,4.53
2019-01-03T10:29:31.979Z,4.57
2019-01-03T10:31:40.896Z,3.60
2019-01-03T10:33:50.040Z,4.25
2019-01-03T10:35:59.403Z,3.80
2019-01-03T10:38:08.211Z,5.00
2019-01-03T10:40:17.148Z,4.12
2019-01-03T10:42:25.987Z,4.33
2019-01-03T10:44:34.890Z,4.73
2019-01-03T10:46:44.523Z,4.77
2019-01-03T10:48:53.351Z,3.78
2019-01-03T10:51:02.151Z,4.25
2019-01-03T10:53:11.300Z,4.32
2019-01-03T10:55:20.110Z,5.28
2019-01-03T10:57:29.838Z,4.80
2019-01-03T10:59:38.574Z,4.53
2019-01-03T11:01:47.227Z,3.42
2019-01-03T11:03:56.261Z,4.10
2019-01-03T11:06:05.139Z,4.40
2019-01-03T11:08:14.855Z,5.70
2019-01-03T11:10:23.544Z,4.60
2019-01-03T11:12:32.315Z,4.32
2019-01-03T11:14:41.095Z,5.47
2019-01-03T11:16:49.687Z,5.25
2019-01-03T11:18:58.571Z,5.18
2019-01-03T11:21:08.202Z,5.10
2019-01-03T11:23:17.112Z,5.07
2019-01-03T11:25:25.846Z,4.00
2019-01-03T11:27:34.571Z,4.68
2019-01-03T11:29:43.651Z,4.50
2019-01-03T11:31:52.526Z,4.87
2019-01-03T11:34:02.864Z,5.12
2019-01-03T11:36:11.575Z,4.90
2019-01-03T11:38:21.530Z,4.60
2019-01-03T11:40:30.240Z,5.40
2019-01-03T11:42:39.163Z,4.65
2019-01-03T11:44:47.885Z,5.43
2019-01-03T11:46:56.590Z,5.40
2019-01-03T11:49:06.245Z,6.78
2019-01-03T11:51:15.889Z,5.95
2019-01-03T11:53:24.651Z,6.65
2019-01-03T11:55:33.391Z,5.00
2019-01-03T11:57:42.041Z,5.87
2019-01-03T11:59:51.469Z,5.97
2019-01-03T12:02:00.876Z,6.50
2019-01-03T12:04:10.300Z,6.00
2019-01-03T12:06:19.943Z,7.45
2019-01-03T12:08:29.235Z,6.57
2019-01-03T12:10:37.924Z,6.00
2019-01-03T12:12:46.479Z,6.60
2019-01-03T12:14:55.328Z,6.05
2019-01-03T12:17:03.931Z,5.72
2019-01-03T12:19:12.783Z,5.78
2019-01-03T12:21:22.955Z,5.40
2019-01-03T12:23:31.770Z,6.97
2019-01-03T12:25:40.679Z,6.10
2019-01-03T12:27:50.063Z,6.57
2019-01-03T12:29:58.824Z,7.03
2019-01-03T12:32:07.659Z,6.62
2019-01-03T12:34:17.195Z,6.90
2019-01-03T12:36:25.907Z,6.60
2019-01-03T12:38:34.560Z,6.97
2019-01-03T12:40:43.212Z,7.37
2019-01-03T12:42:52.784Z,6.00
2019-01-03T12:45:01.612Z,6.43
2019-01-03T12:47:10.311Z,7.10
2019-01-03T12:49:20.275Z,6.78
2019-01-03T12:51:29.149Z,6.75
2019-01-03T12:53:38.039Z,7.78
2019-01-03T12:55:47.551Z,7.85
2019-01-03T12:57:57.173Z,7.50
2019-01-03T13:00:06.077Z,6.45
2019-01-03T13:02:14.783Z,8.02
2019-01-03T13:04:23.712Z,7.22
2019-01-03T13:06:33.044Z,6.80
2019-01-03T13:08:42.607Z,5.82
2019-01-03T13:10:52.155Z,6.60
2019-01-03T13:13:00.855Z,7.60
2019-01-03T13:15:09.792Z,7.10
2019-01-03T13:17:18.608Z,6.32
2019-01-03T13:19:27.633Z,7.43
2019-01-03T13:21:36.555Z,6.90
2019-01-03T13:23:46.056Z,7.07
2019-01-03T13:25:54.964Z,7.15
2019-01-03T13:28:03.656Z,7.53
2019-01-03T13:30:12.424Z,7.40
2019-01-03T13:32:21.948Z,7.80
2019-01-03T13:34:30.907Z,6.47
2019-01-03T13:36:39.979Z,8.02
2019-01-03T13:38:48.583Z,7.83
2019-01-03T13:40:57.576Z,8.60
2019-01-03T13:43:06.375Z,7.60
2019-01-03T13:45:15.957Z,7.00
2019-01-03T13:47:24.604Z,7.57
2019-01-03T13:49:34.416Z,7.05
2019-01-03T13:51:43.212Z,8.35
2019-01-03T13:53:52.031Z,6.50
2019-01-03T13:56:01.429Z,7.60
2019-01-03T13:58:10.184Z,7.97
2019-01-03T14:00:19.815Z,7.62
2019-01-03T14:02:28.695Z,8.30
2019-01-03T14:04:38.131Z,7.90
2019-01-03T14:06:47.079Z,6.95
2019-01-03T14:08:55.651Z,7.43
2019-01-03T14:11:04.334Z,6.93
2019-01-03T14:13:13.045Z,7.43
2019-01-03T14:15:22.516Z,8.20
2019-01-03T14:17:32.396Z,9.05
2019-01-03T14:19:41.014Z,7.25
2019-01-03T14:21:50.635Z,7.85
2019-01-03T14:24:00.216Z,7.50
2019-01-03T14:26:08.881Z,8.83
2019-01-03T14:28:17.552Z,8.00
2019-01-03T14:30:26.424Z,8.10
2019-01-03T14:32:35.500Z,8.15
2019-01-03T14:34:44.895Z,8.55
2019-01-03T14:36:54.111Z,8.65
2019-01-03T14:39:02.891Z,7.93
2019-01-03T14:41:11.731Z,7.93
2019-01-03T14:43:20.680Z,7.60
2019-01-03T14:45:29.433Z,7.70
2019-01-03T14:47:38.948Z,8.20
2019-01-03T14:49:47.535Z,8.07
2019-01-03T14:51:57.011Z,8.38
2019-01-03T14:54:05.715Z,6.90
2019-01-03T14:56:14.767Z,8.00
2019-01-03T14:58:23.513Z,7.45
2019-01-03T15:00:32.403Z,8.57
2019-01-03T15:02:40.919Z,8.70
2019-01-03T15:04:50.760Z,8.93
2019-01-03T15:07:00.502Z,8.70
2019-01-03T15:09:10.109Z,8.20
2019-01-03T15:11:18.857Z,7.83
2019-01-03T15:13:28.372Z,8.33
2019-01-03T15:15:37.406Z,8.73
2019-01-03T15:17:46.095Z,7.80
2019-01-03T15:19:55.016Z,9.30
2019-01-03T15:22:03.655Z,8.77
2019-01-03T15:24:13.207Z,9.60
2019-01-03T15:26:21.784Z,8.77
2019-01-03T15:28:31.663Z,8.05
2019-01-03T15:30:40.283Z,9.10
2019-01-03T15:32:48.903Z,9.10
2019-01-03T15:34:57.705Z,9.87
2019-01-03T15:37:06.748Z,9.00
2019-01-03T15:39:15.443Z,10.20
2019-01-03T15:41:24.399Z,9.43
2019-01-03T15:43:33.099Z,9.00
2019-01-03T15:45:42.072Z,9.65
2019-01-03T15:47:51.051Z,9.67
2019-01-03T15:49:59.759Z,9.60
2019-01-03T15:52:08.479Z,10.55
2019-01-03T15:54:18.383Z,8.68
2019-01-03T15:56:27.252Z,8.05
2019-01-03T15:58:35.965Z,9.77
2019-01-03T16:00:44.683Z,9.80
2019-01-03T16:02:53.505Z,9.53
2019-01-03T16:05:02.227Z,9.98
2019-01-03T16:07:10.938Z,9.50
2019-01-03T16:09:19.744Z,9.80
2019-01-03T16:11:28.554Z,9.27
2019-01-03T16:13:38.459Z,9.60
2019-01-03T16:15:47.347Z,8.97
2019-01-03T16:17:56.692Z,9.80
2019-01-03T16:20:05.555Z,10.98
2019-01-03T16:22:14.619Z,11.68
2019-01-03T16:24:24.199Z,9.63
2019-01-03T16:26:33.145Z,9.75
2019-01-03T16:28:41.770Z,9.57
2019-01-03T16:30:51.410Z,8.90
2019-01-03T16:33:00.160Z,10.00
2019-01-03T16:35:09.079Z,9.57
2019-01-03T16:37:18.695Z,10.33
2019-01-03T16:39:27.439Z,10.00
2019-01-03T16:41:36.351Z,9.00
2019-01-03T16:43:45.131Z,10.30
2019-01-03T16:45:53.774Z,9.18
2019-01-03T16:48:02.607Z,8.77
2019-01-03T16:50:11.530Z,10.45
2019-01-03T16:52:20.967Z,8.65
2019-01-03T16:54:30.401Z,10.52
2019-01-03T16:56:39.010Z,9.13
2019-01-03T16:58:47.727Z,9.05
2019-01-03T17:00:57.471Z,9.83
2019-01-03T17:03:07.594Z,8.37
2019-01-03T17:05:17.019Z,9.17
2019-01-03T17:07:26.491Z,9.30
2019-01-03T17:09:35.905Z,9.80
2019-01-03T17:11:45.421Z,10.57
2019-01-03T17:13:54.280Z,9.10
2019-01-03T17:16:02.966Z,9.73
2019-01-03T17:18:11.806Z,9.95
2019-01-03T17:20:21.451Z,10.30
2019-01-03T17:22:30.263Z,9.48
2019-01-03T17:24:39.424Z,9.70
2019-01-03T17:26:48.127Z,10.53
2019-01-03T17:28:56.843Z,9.73
2019-01-03T17:31:05.832Z,9.00
2019-01-03T17:33:14.651Z,10.03
2019-01-03T17:35:24.316Z,9.73
2019-01-03T17:37:32.938Z,10.27
2019-01-03T17:39:42.575Z,9.70
2019-01-03T17:41:51.396Z,10.63
2019-01-03T17:44:00.019Z,10.10
2019-01-03T17:46:08.840Z,11.00
2019-01-03T17:48:17.543Z,10.38
2019-01-03T17:50:26.352Z,9.90
2019-01-03T17:52:35.191Z,10.53
2019-01-03T17:54:44.603Z,10.47
2019-01-03T17:56:53.211Z,10.60
2019-01-03T17:59:02.079Z,10.43
2019-01-03T18:01:10.981Z,11.35
2019-01-03T18:03:20.315Z,11.85
2019-01-03T18:05:30.157Z,10.60
2019-01-03T18:07:39.721Z,10.80
2019-01-03T18:09:48.616Z,10.32
2019-01-03T18:11:57.447Z,11.50
2019-01-03T18:14:06.365Z,8.60
2019-01-03T18:16:15.075Z,9.57
2019-01-03T18:18:24.694Z,9.93
2019-01-03T18:20:33.295Z,10.03
2019-01-03T18:22:42.056Z,11.68
2019-01-03T18:24:51.481Z,11.45
2019-01-03T18:27:00.985Z,9.30
2019-01-03T18:29:09.834Z,10.90
2019-01-03T18:31:19.272Z,10.23
2019-01-03T18:33:28.106Z,11.55
2019-01-03T18:35:36.811Z,10.40
2019-01-03T18:37:45.735Z,11.50
2019-01-03T18:39:55.962Z,10.97
2019-01-03T18:42:04.787Z,9.93
2019-01-03T18:44:13.755Z,11.07
2019-01-03T18:46:23.398Z,10.70
2019-01-03T18:48:31.970Z,11.27
2019-01-03T18:50:40.555Z,11.10
2019-01-03T18:52:49.376Z,11.60
2019-01-03T18:54:58.372Z,13.07
2019-01-03T18:57:07.369Z,10.77
2019-01-03T18:59:15.963Z,10.75
2019-01-03T19:01:25.109Z,10.20
2019-01-03T19:03:34.775Z,9.67
2019-01-03T19:05:43.551Z,11.23
2019-01-03T19:07:52.235Z,11.10
2019-01-03T19:10:01.710Z,11.43
2019-01-03T19:12:10.536Z,11.68
2019-01-03T19:14:23.008Z,11.95
2019-01-03T19:16:31.863Z,11.77
2019-01-03T19:18:44.080Z,11.40
2019-01-03T19:20:54.119Z,10.93
2019-01-03T19:23:03.544Z,11.07
2019-01-03T19:25:12.392Z,12.37
2019-01-03T19:27:21.195Z,12.07
2019-01-03T19:29:29.811Z,10.38
2019-01-03T19:31:38.543Z,12.20
2019-01-03T19:33:47.443Z,11.50
2019-01-03T19:35:56.366Z,10.30
2019-01-03T19:38:05.190Z,10.93
2019-01-03T19:40:14.005Z,10.60
2019-01-03T19:42:22.640Z,10.63
2019-01-03T19:44:31.233Z,10.90
2019-01-03T19:46:40.849Z,11.95
2019-01-03T19:48:49.727Z,11.63
2019-01-03T19:50:58.507Z,9.85
2019-01-03T19:53:07.540Z,11.57
2019-01-03T19:55:16.617Z,9.98
2019-01-03T19:57:25.695Z,11.02
2019-01-03T19:59:34.495Z,11.95
2019-01-03T20:01:43.228Z,11.43
2019-01-03T20:03:52.259Z,11.17
2019-01-03T20:06:02.332Z,12.03
2019-01-03T20:08:11.220Z,11.60
2019-01-03T20:10:20.032Z,12.30
2019-01-03T20:12:29.201Z,12.07
2019-01-03T20:14:37.852Z,11.35
2019-01-03T20:16:46.714Z,11.12
2019-01-03T20:18:56.315Z,11.03
2019-01-03T20:21:05.050Z,12.17
2019-01-03T20:23:13.886Z,10.53
2019-01-03T20:25:23.699Z,10.73
2019-01-03T20:27:32.435Z,9.88
2019-01-03T20:29:42.095Z,11.63
2019-01-03T20:31:50.796Z,12.50
2019-01-03T20:33:59.616Z,11.45
2019-01-03T20:36:08.436Z,11.40
2019-01-03T20:38:17.156Z,11.05
2019-01-03T20:40:26.579Z,12.00
2019-01-03T20:42:36.087Z,12.50
2019-01-03T20:44:44.827Z,12.27
2019-01-03T20:46:53.673Z,12.07
2019-01-03T20:49:02.559Z,11.80
2019-01-03T20:51:11.567Z,13.80
2019-01-03T20:53:21.316Z,12.22
2019-01-03T20:55:29.923Z,11.35
2019-01-03T20:57:38.930Z,12.60
2019-01-03T20:59:47.583Z,10.97
2019-01-03T21:01:57.308Z,12.03
2019-01-03T21:04:05.945Z,12.37
2019-01-03T21:06:14.985Z,12.43
2019-01-03T21:08:23.752Z,12.98
2019-01-03T21:10:33.111Z,11.57
2019-01-03T21:12:41.865Z,11.27
2019-01-03T21:14:50.567Z,13.25
2019-01-03T21:16:59.188Z,12.50
2019-01-03T21:19:08.033Z,11.27
2019-01-03T21:21:16.807Z,16.03
2019-01-03T21:23:26.536Z,14.77
2019-01-03T21:25:35.387Z,12.77
2019-01-03T21:27:44.207Z,12.77
2019-01-03T21:29:53.664Z,11.93
2019-01-03T21:32:02.460Z,11.15
2019-01-03T21:34:11.278Z,12.77
2019-01-03T21:36:19.859Z,11.60
2019-01-03T21:38:28.507Z,11.57
2019-01-03T21:40:37.330Z,11.97
2019-01-03T21:42:46.079Z,13.17
2019-01-03T21:44:55.063Z,11.20
2019-01-03T21:47:03.867Z,12.60
2019-01-03T21:49:12.811Z,12.75
2019-01-03T21:51:22.552Z,12.00
2019-01-03T21:53:31.838Z,12.05
2019-01-03T21:55:41.512Z,12.75
2019-01-03T21:57:50.104Z,13.15
2019-01-03T21:59:58.955Z,13.67
2019-01-03T22:02:07.887Z,12.50
2019-01-03T22:04:16.778Z,12.85
2019-01-03T22:06:25.523Z,13.52
2019-01-03T22:08:34.840Z,14.05
2019-01-03T22:10:43.572Z,13.43
2019-01-03T22:12:52.466Z,14.00
2019-01-03T22:15:01.079Z,12.88
2019-01-03T22:17:10.127Z,13.20
2019-01-03T22:19:18.847Z,12.67
2019-01-03T22:21:27.460Z,11.70
2019-01-03T22:23:37.521Z,12.50
2019-01-03T22:25:45.004Z,13.83
2019-01-03T22:27:55.227Z,13.67
2019-01-03T22:30:04.994Z,13.13
2019-01-03T22:32:14.679Z,11.93
2019-01-03T22:34:23.301Z,13.32
2019-01-03T22:36:32.992Z,12.63
2019-01-03T22:38:41.816Z,13.93
2019-01-03T22:40:51.216Z,14.13
2019-01-03T22:43:00.279Z,16.07
2019-01-03T22:45:09.364Z,16.30
2019-01-03T22:47:19.447Z,17.50
2019-01-03T22:49:28.267Z,14.30
2019-01-03T22:51:37.191Z,13.18
2019-01-03T22:53:45.981Z,14.38
2019-01-03T22:55:54.628Z,11.85
2019-01-03T22:58:03.249Z,13.40
2019-01-03T23:00:13.527Z,12.10
2019-01-03T23:02:22.620Z,12.25
2019-01-03T23:04:31.334Z,12.32
2019-01-03T23:06:40.563Z,12.43
2019-01-03T23:08:49.997Z,13.87
2019-01-03T23:10:58.905Z,12.03
2019-01-03T23:13:07.639Z,13.00
2019-01-03T23:15:16.559Z,11.90
2019-01-03T23:17:25.219Z,11.03
2019-01-03T23:19:34.100Z,10.27
2019-01-03T23:21:42.731Z,11.32
2019-01-03T23:23:52.319Z,9.70
2019-01-03T23:26:01.859Z,11.02
2019-01-03T23:28:10.607Z,11.35
2019-01-03T23:30:19.532Z,10.90
2019-01-03T23:32:28.451Z,11.45
2019-01-03T23:34:37.375Z,9.65
2019-01-03T23:36:46.688Z,9.87
2019-01-03T23:38:56.935Z,10.30
2019-01-03T23:41:05.548Z,9.77
2019-01-03T23:43:14.501Z,10.65
2019-01-03T23:45:23.312Z,10.15
2019-01-03T23:47:32.035Z,9.85
2019-01-03T23:49:41.363Z,11.25
2019-01-03T23:51:50.145Z,10.35
2019-01-03T23:53:59.724Z,10.20
2019-01-03T23:56:10.151Z,10.07
2019-01-03T23:58:19.303Z,8.50
